createdAt,value
2023-05-25T00:01:20.745Z,48.83
2023-05-25T00:03:52.793Z,39.43
2023-05-25T00:06:20.072Z,34.70
2023-05-25T00:08:48.681Z,34.50
2023-05-25T00:11:19.550Z,35.40
2023-05-25T00:13:46.579Z,37.97
2023-05-25T00:16:13.645Z,33.40
2023-05-25T00:18:40.703Z,44.23
2023-05-25T00:21:07.772Z,41.77
2023-05-25T00:23:34.797Z,35.27
2023-05-25T00:26:06.383Z,48.53
2023-05-25T00:28:38.110Z,31.47
2023-05-25T00:31:05.198Z,30.03
2023-05-25T00:33:32.175Z,45.63
2023-05-25T00:36:00.174Z,37.43
2023-05-25T00:38:27.337Z,39.57
2023-05-25T00:40:57.706Z,37.03
2023-05-25T00:43:30.668Z,38.93
2023-05-25T00:46:01.605Z,42.10
2023-05-25T00:48:30.908Z,24.13
2023-05-25T00:50:59.943Z,24.80
2023-05-25T00:53:29.787Z,35.03
2023-05-25T00:56:25.064Z,29.80
2023-05-25T00:58:57.015Z,43.70
2023-05-25T01:01:26.384Z,48.60
2023-05-25T01:03:56.339Z,32.23
2023-05-25T01:06:23.735Z,42.27
2023-05-25T01:09:00.266Z,33.27
2023-05-25T01:11:37.599Z,42.00
2023-05-25T01:14:05.222Z,48.30
2023-05-25T01:16:32.407Z,31.93
2023-05-25T01:19:03.901Z,38.67
2023-05-25T01:21:42.501Z,29.43
2023-05-25T01:24:22.670Z,36.20
2023-05-25T01:27:13.257Z,34.23
2023-05-25T01:29:45.604Z,38.23
2023-05-25T01:32:18.133Z,46.73
2023-05-25T01:34:46.587Z,35.77
2023-05-25T01:37:14.019Z,41.73
2023-05-25T01:39:41.736Z,28.90
2023-05-25T01:42:08.781Z,53.47
2023-05-25T01:44:37.477Z,38.63
2023-05-25T01:47:33.182Z,38.43
2023-05-25T01:50:12.446Z,44.33
2023-05-25T01:52:50.478Z,31.67
2023-05-25T01:55:22.643Z,37.93
2023-05-25T01:57:53.254Z,30.20
2023-05-25T02:00:25.119Z,35.73
2023-05-25T02:02:57.385Z,44.73
2023-05-25T02:05:24.492Z,21.03
2023-05-25T02:07:52.167Z,36.13
2023-05-25T02:10:19.180Z,38.37
2023-05-25T02:12:51.720Z,34.73
2023-05-25T02:15:19.323Z,42.40
2023-05-25T02:17:46.327Z,30.97
2023-05-25T02:20:13.876Z,44.67
2023-05-25T02:22:43.542Z,41.13
2023-05-25T02:25:12.937Z,36.03
2023-05-25T02:27:39.902Z,27.83
2023-05-25T02:30:07.895Z,49.27
2023-05-25T02:32:37.999Z,37.13
2023-05-25T02:35:07.925Z,46.83
2023-05-25T02:37:37.397Z,36.53
2023-05-25T02:40:06.420Z,40.80
2023-05-25T02:42:35.677Z,62.90
2023-05-25T02:45:06.587Z,46.40
2023-05-25T02:47:33.589Z,50.40
2023-05-25T02:50:03.119Z,45.70
2023-05-25T02:52:31.780Z,42.20
2023-05-25T02:55:01.224Z,57.63
2023-05-25T02:57:29.171Z,55.30
2023-05-25T02:59:57.078Z,30.60
2023-05-25T03:02:31.333Z,56.20
2023-05-25T03:05:03.124Z,41.57
2023-05-25T03:07:31.800Z,47.23
2023-05-25T03:09:59.657Z,48.97
2023-05-25T03:12:29.200Z,48.83
2023-05-25T03:14:58.384Z,43.00
2023-05-25T03:17:25.542Z,37.30
2023-05-25T03:19:53.297Z,33.27
2023-05-25T03:22:20.484Z,34.67
2023-05-25T03:24:50.267Z,54.97
2023-05-25T03:27:17.327Z,32.83
2023-05-25T03:29:44.235Z,42.10
2023-05-25T03:32:11.305Z,36.27
2023-05-25T03:34:40.631Z,37.53
2023-05-25T03:37:07.658Z,45.67
2023-05-25T03:39:34.645Z,54.67
2023-05-25T03:42:04.083Z,46.83
2023-05-25T03:44:31.222Z,28.60
2023-05-25T03:46:58.553Z,51.83
2023-05-25T03:49:25.737Z,27.30
2023-05-25T03:51:52.852Z,32.80
2023-05-25T03:54:19.909Z,33.77
2023-05-25T03:56:47.200Z,41.63
2023-05-25T03:59:14.250Z,38.90
2023-05-25T04:01:41.365Z,47.03
2023-05-25T04:04:11.421Z,44.00
2023-05-25T04:06:39.341Z,54.63
2023-05-25T04:09:06.380Z,62.60
2023-05-25T04:11:33.437Z,37.43
2023-05-25T04:14:00.504Z,31.93
2023-05-25T04:16:34.859Z,28.00
2023-05-25T04:19:01.840Z,54.20
2023-05-25T04:21:29.106Z,44.10
2023-05-25T04:23:56.534Z,39.53
2023-05-25T04:26:26.354Z,32.53
2023-05-25T04:28:55.943Z,55.10
2023-05-25T04:31:24.903Z,41.53
2023-05-25T04:33:56.141Z,52.30
2023-05-25T04:36:26.048Z,52.80
2023-05-25T04:38:54.729Z,52.37
2023-05-25T04:41:21.734Z,54.93
2023-05-25T04:44:05.676Z,57.13
2023-05-25T04:46:37.572Z,59.57
2023-05-25T04:49:05.709Z,66.27
2023-05-25T04:51:33.115Z,56.87
2023-05-25T04:54:00.173Z,45.10
2023-05-25T04:56:27.195Z,73.57
2023-05-25T04:58:54.295Z,40.23
2023-05-25T05:01:26.577Z,55.20
2023-05-25T05:03:53.737Z,52.40
2023-05-25T05:06:24.173Z,55.07
2023-05-25T05:08:53.626Z,43.70
2023-05-25T05:11:20.660Z,47.90
2023-05-25T05:13:47.691Z,44.63
2023-05-25T05:16:14.782Z,37.97
2023-05-25T05:18:41.795Z,44.93
2023-05-25T05:21:08.915Z,54.10
2023-05-25T05:23:36.565Z,43.50
2023-05-25T05:26:05.005Z,38.53
2023-05-25T05:28:36.595Z,34.60
2023-05-25T05:31:06.892Z,35.50
2023-05-25T05:33:34.041Z,37.83
2023-05-25T05:36:02.702Z,32.00
2023-05-25T05:38:31.978Z,30.93
2023-05-25T05:40:58.978Z,29.67
2023-05-25T05:43:28.390Z,32.13
2023-05-25T05:45:57.616Z,31.67
2023-05-25T05:48:24.638Z,32.37
2023-05-25T05:50:51.885Z,21.27
2023-05-25T05:53:18.833Z,23.73
2023-05-25T05:55:51.229Z,23.23
2023-05-25T05:58:19.961Z,19.67
2023-05-25T06:00:49.470Z,29.90
2023-05-25T06:03:16.355Z,24.27
2023-05-25T06:05:46.930Z,22.97
2023-05-25T06:08:14.304Z,18.67
2023-05-25T06:10:42.384Z,26.90
2023-05-25T06:13:09.466Z,21.00
2023-05-25T06:15:39.395Z,20.67
2023-05-25T06:18:09.751Z,22.63
2023-05-25T06:20:39.374Z,17.00
2023-05-25T06:23:14.081Z,19.20
2023-05-25T06:25:41.916Z,16.57
2023-05-25T06:28:09.400Z,20.13
2023-05-25T06:30:38.942Z,21.20
2023-05-25T06:33:06.185Z,16.97
2023-05-25T06:35:33.242Z,13.93
2023-05-25T06:38:05.445Z,22.83
2023-05-25T06:40:32.370Z,15.77
2023-05-25T06:42:59.367Z,20.07
2023-05-25T06:45:28.559Z,19.90
2023-05-25T06:47:57.974Z,14.93
2023-05-25T06:50:25.247Z,15.83
2023-05-25T06:52:52.374Z,13.20
2023-05-25T06:55:19.411Z,13.20
2023-05-25T06:57:46.809Z,15.70
2023-05-25T07:00:14.785Z,28.73
2023-05-25T07:02:41.940Z,16.00
2023-05-25T07:05:10.477Z,20.40
2023-05-25T07:07:38.131Z,16.30
2023-05-25T07:10:06.984Z,17.13
2023-05-25T07:12:34.389Z,25.87
2023-05-25T07:15:01.353Z,13.50
2023-05-25T07:17:28.845Z,27.23
2023-05-25T07:19:56.143Z,13.73
2023-05-25T07:22:23.774Z,24.00
2023-05-25T07:24:57.859Z,22.80
2023-05-25T07:27:27.839Z,21.03
2023-05-25T07:29:55.169Z,21.73
2023-05-25T07:32:22.583Z,27.13
2023-05-25T07:34:50.291Z,20.43
2023-05-25T07:37:17.289Z,18.60
2023-05-25T07:39:49.262Z,21.00
2023-05-25T07:42:21.196Z,28.00
2023-05-25T07:44:52.912Z,19.60
2023-05-25T07:47:19.960Z,20.60
2023-05-25T07:49:47.065Z,15.10
2023-05-25T07:52:16.451Z,12.37
2023-05-25T07:54:43.584Z,22.77
2023-05-25T07:57:13.015Z,19.57
2023-05-25T07:59:42.708Z,16.07
2023-05-25T08:02:14.468Z,18.30
2023-05-25T08:04:41.894Z,26.97
2023-05-25T08:07:11.514Z,19.90
2023-05-25T08:09:40.581Z,24.43
2023-05-25T08:12:30.587Z,17.67
2023-05-25T08:14:54.753Z,17.37
2023-05-25T08:17:24.749Z,22.60
2023-05-25T08:19:55.246Z,13.60
2023-05-25T08:22:24.754Z,16.27
2023-05-25T08:24:52.548Z,14.17
2023-05-25T08:27:24.364Z,25.73
2023-05-25T08:29:56.821Z,21.27
2023-05-25T08:32:26.273Z,14.93
2023-05-25T08:34:53.749Z,21.40
2023-05-25T08:37:24.972Z,20.03
2023-05-25T08:39:54.466Z,18.33
2023-05-25T08:42:21.534Z,18.73
2023-05-25T08:44:48.651Z,15.00
2023-05-25T08:47:17.930Z,18.53
2023-05-25T08:49:49.116Z,19.30
2023-05-25T08:52:21.827Z,26.70
2023-05-25T08:54:56.383Z,23.67
2023-05-25T08:57:54.843Z,15.47
2023-05-25T09:00:36.610Z,30.80
2023-05-25T09:03:10.444Z,22.10
2023-05-25T09:05:38.241Z,14.40
2023-05-25T09:08:09.653Z,18.77
2023-05-25T09:10:40.823Z,24.77
2023-05-25T09:15:37.794Z,20.23
2023-05-25T09:18:05.412Z,26.40
2023-05-25T09:20:33.090Z,15.97
2023-05-25T09:23:00.606Z,22.70
2023-05-25T09:25:30.745Z,20.87
2023-05-25T09:28:10.135Z,18.73
2023-05-25T09:30:53.567Z,19.03
2023-05-25T09:33:23.175Z,17.17
2023-05-25T09:35:52.462Z,27.97
2023-05-25T09:38:22.369Z,24.77
2023-05-25T09:40:52.532Z,13.60
2023-05-25T09:43:32.336Z,19.30
2023-05-25T09:46:11.467Z,19.37
2023-05-25T09:48:41.415Z,16.90
2023-05-25T09:51:11.392Z,19.53
2023-05-25T09:53:38.591Z,15.67
2023-05-25T09:56:06.413Z,17.70
2023-05-25T09:58:33.356Z,26.50
2023-05-25T10:01:00.949Z,23.13
2023-05-25T10:03:27.998Z,19.03
2023-05-25T10:05:57.813Z,20.80
2023-05-25T10:08:28.771Z,10.50
2023-05-25T10:11:01.609Z,18.17
2023-05-25T10:13:33.905Z,20.37
2023-05-25T10:16:02.321Z,17.87
2023-05-25T10:18:36.520Z,22.47
2023-05-25T10:21:05.285Z,21.57
2023-05-25T10:23:45.558Z,14.10
2023-05-25T10:26:20.104Z,14.97
2023-05-25T10:28:52.002Z,16.50
2023-05-25T10:31:19.537Z,14.33
2023-05-25T10:33:52.149Z,12.07
2023-05-25T10:36:21.519Z,20.57
2023-05-25T10:38:54.627Z,21.03
2023-05-25T10:41:24.002Z,19.73
2023-05-25T10:43:53.358Z,20.50
2023-05-25T10:46:21.389Z,17.10
2023-05-25T10:48:51.893Z,18.37
2023-05-25T10:51:22.395Z,18.87
2023-05-25T10:54:03.181Z,24.70
2023-05-25T10:56:30.124Z,17.10
2023-05-25T10:58:57.716Z,19.93
2023-05-25T11:01:28.333Z,20.10
2023-05-25T11:03:58.429Z,20.30
2023-05-25T11:06:48.205Z,25.13
2023-05-25T11:09:33.762Z,20.13
2023-05-25T11:12:03.437Z,19.87
2023-05-25T11:14:36.268Z,19.37
2023-05-25T11:17:19.582Z,27.63
2023-05-25T11:19:52.147Z,24.60
2023-05-25T11:22:24.173Z,20.67
2023-05-25T11:24:54.588Z,25.40
2023-05-25T11:27:30.071Z,18.17
2023-05-25T11:29:59.799Z,19.10
2023-05-25T11:32:30.014Z,14.97
2023-05-25T11:34:58.540Z,19.43
2023-05-25T11:37:31.136Z,16.57
2023-05-25T11:39:58.272Z,23.83
2023-05-25T11:42:26.399Z,16.10
2023-05-25T11:44:53.699Z,17.50
2023-05-25T11:47:25.461Z,23.63
2023-05-25T11:49:55.683Z,22.97
2023-05-25T11:52:23.395Z,22.43
2023-05-25T11:54:51.078Z,22.13
2023-05-25T11:57:24.802Z,14.33
2023-05-25T12:00:01.897Z,19.40
2023-05-25T12:02:37.580Z,21.00
2023-05-25T12:05:07.864Z,28.33
2023-05-25T12:07:47.233Z,25.97
2023-05-25T12:10:17.898Z,28.27
2023-05-25T12:12:58.203Z,22.93
2023-05-25T12:15:30.456Z,28.83
2023-05-25T12:18:00.057Z,18.57
2023-05-25T12:20:27.527Z,26.80
2023-05-25T12:22:54.720Z,22.83
2023-05-25T12:25:22.762Z,34.60
2023-05-25T12:27:49.940Z,26.40
2023-05-25T12:30:16.971Z,24.03
2023-05-25T12:33:04.961Z,22.37
2023-05-25T12:35:48.195Z,20.30
2023-05-25T12:38:22.532Z,18.63
2023-05-25T12:41:08.109Z,27.40
2023-05-25T12:43:40.235Z,26.17
2023-05-25T12:46:07.528Z,25.40
2023-05-25T12:48:34.827Z,41.43
2023-05-25T12:51:02.087Z,22.20
2023-05-25T12:53:31.613Z,19.50
2023-05-25T12:56:04.783Z,30.90
2023-05-25T12:58:31.752Z,28.87
2023-05-25T13:00:58.969Z,24.33
2023-05-25T13:03:26.238Z,26.80
2023-05-25T13:06:03.634Z,33.47
2023-05-25T13:08:31.011Z,34.37
2023-05-25T13:11:03.519Z,35.33
2023-05-25T13:13:33.149Z,32.30
2023-05-25T13:16:00.354Z,26.90
2023-05-25T13:18:27.462Z,33.07
2023-05-25T13:20:56.901Z,26.73
2023-05-25T13:23:24.417Z,26.30
2023-05-25T13:25:53.703Z,17.63
2023-05-25T13:28:30.149Z,29.20
2023-05-25T13:30:57.978Z,23.20
2023-05-25T13:33:29.612Z,35.20
2023-05-25T13:36:08.597Z,34.70
2023-05-25T13:38:39.128Z,27.17
2023-05-25T13:41:06.928Z,32.60
2023-05-25T13:43:34.186Z,25.87
2023-05-25T13:46:03.972Z,25.67
2023-05-25T13:48:31.166Z,30.17
2023-05-25T13:50:59.859Z,31.83
2023-05-25T13:53:27.747Z,36.13
2023-05-25T13:55:54.796Z,38.97
2023-05-25T13:58:21.849Z,28.00
2023-05-25T14:00:51.166Z,37.87
2023-05-25T14:03:18.334Z,34.90
2023-05-25T14:05:45.853Z,35.57
2023-05-25T14:08:17.629Z,38.10
2023-05-25T14:10:45.011Z,32.80
2023-05-25T14:13:14.346Z,40.77
2023-05-25T14:15:41.471Z,38.00
2023-05-25T14:18:08.568Z,30.47
2023-05-25T14:20:38.218Z,27.13
2023-05-25T14:23:05.551Z,28.20
2023-05-25T14:25:32.523Z,33.67
2023-05-25T14:28:04.131Z,31.40
2023-05-25T14:30:34.347Z,32.07
2023-05-25T14:33:04.521Z,38.93
2023-05-25T14:35:31.732Z,26.90
2023-05-25T14:37:58.790Z,39.17
2023-05-25T14:40:25.946Z,30.80
2023-05-25T14:42:57.990Z,41.53
2023-05-25T14:45:27.574Z,27.73
2023-05-25T14:48:03.948Z,27.00
2023-05-25T14:50:43.912Z,37.80
2023-05-25T14:53:11.016Z,29.07
2023-05-25T14:55:37.917Z,38.40
2023-05-25T14:58:04.906Z,38.83
2023-05-25T15:00:34.147Z,33.63
2023-05-25T15:03:01.396Z,31.90
2023-05-25T15:05:28.536Z,42.67
2023-05-25T15:07:55.710Z,29.10
2023-05-25T15:10:22.761Z,32.00
2023-05-25T15:12:49.831Z,38.07
2023-05-25T15:15:17.161Z,25.87
2023-05-25T15:17:44.429Z,35.40
2023-05-25T15:20:15.132Z,37.03
2023-05-25T15:22:42.325Z,33.97
2023-05-25T15:25:16.930Z,30.20
2023-05-25T15:27:48.738Z,39.30
2023-05-25T15:30:20.935Z,35.37
2023-05-25T15:32:49.246Z,42.23
2023-05-25T15:35:19.371Z,29.80
2023-05-25T15:37:51.346Z,23.93
2023-05-25T15:40:20.784Z,36.73
2023-05-25T15:42:48.128Z,33.10
2023-05-25T15:45:20.001Z,36.70
2023-05-25T15:47:47.168Z,51.37
2023-05-25T15:50:17.158Z,36.17
2023-05-25T15:52:46.818Z,38.97
2023-05-25T15:55:14.157Z,39.03
2023-05-25T15:57:47.545Z,39.30
2023-05-25T16:00:15.543Z,31.97
2023-05-25T16:02:42.681Z,37.93
2023-05-25T16:05:12.597Z,37.93
2023-05-25T16:07:39.782Z,49.87
2023-05-25T16:10:10.699Z,39.83
2023-05-25T16:12:38.034Z,38.03
2023-05-25T16:15:05.874Z,43.17
2023-05-25T16:17:33.041Z,31.60
2023-05-25T16:20:00.299Z,34.20
2023-05-25T16:22:27.375Z,38.93
2023-05-25T16:24:54.453Z,41.60
2023-05-25T16:27:21.572Z,26.80
2023-05-25T16:29:48.546Z,31.23
2023-05-25T16:32:15.561Z,29.80
2023-05-25T16:34:45.214Z,34.67
2023-05-25T16:37:14.642Z,49.23
2023-05-25T16:39:41.827Z,41.30
2023-05-25T16:42:11.290Z,31.93
2023-05-25T16:44:42.895Z,33.57
2023-05-25T16:47:12.179Z,33.37
2023-05-25T16:49:39.293Z,33.77
2023-05-25T16:52:06.411Z,31.90
2023-05-25T16:54:35.976Z,31.80
2023-05-25T16:57:03.180Z,42.23
2023-05-25T16:59:30.287Z,40.13
2023-05-25T17:01:57.720Z,43.23
2023-05-25T17:04:24.941Z,36.53
2023-05-25T17:06:52.202Z,37.17
2023-05-25T17:09:19.484Z,54.33
2023-05-25T17:11:46.554Z,37.27
2023-05-25T17:14:16.432Z,34.77
2023-05-25T17:16:46.159Z,43.03
2023-05-25T17:19:15.038Z,50.47
2023-05-25T17:21:44.495Z,49.80
2023-05-25T17:24:11.779Z,38.30
2023-05-25T17:26:38.854Z,39.00
2023-05-25T17:29:08.251Z,41.63
2023-05-25T17:31:38.044Z,61.57
2023-05-25T17:34:05.106Z,41.00
2023-05-25T17:36:37.284Z,40.70
2023-05-25T17:39:07.143Z,42.60
2023-05-25T17:41:36.672Z,40.23
2023-05-25T17:44:06.003Z,44.13
2023-05-25T17:46:36.298Z,49.20
2023-05-25T17:49:06.048Z,36.33
2023-05-25T17:51:35.351Z,47.10
2023-05-25T17:54:05.855Z,49.57
2023-05-25T17:56:33.112Z,44.70
2023-05-25T17:59:00.385Z,60.67
2023-05-25T18:01:27.395Z,44.33
2023-05-25T18:03:57.676Z,43.43
2023-05-25T18:06:26.202Z,51.27
2023-05-25T18:08:57.449Z,49.83
2023-05-25T18:11:24.557Z,40.90
2023-05-25T18:13:51.719Z,50.37
2023-05-25T18:16:18.972Z,52.70
2023-05-25T18:18:46.107Z,43.43
2023-05-25T18:21:13.346Z,37.53
2023-05-25T18:23:40.523Z,41.23
2023-05-25T18:26:09.694Z,53.73
2023-05-25T18:28:39.033Z,61.80
2023-05-25T18:31:06.314Z,37.00
2023-05-25T18:33:33.530Z,49.50
2023-05-25T18:36:00.754Z,43.87
2023-05-25T18:38:27.880Z,44.27
2023-05-25T18:41:06.120Z,56.27
2023-05-25T18:43:35.741Z,44.30
2023-05-25T18:46:07.451Z,40.50
2023-05-25T18:48:37.522Z,45.23
2023-05-25T18:51:07.679Z,38.40
2023-05-25T18:53:34.812Z,40.87
2023-05-25T18:56:07.009Z,48.83
2023-05-25T18:58:33.989Z,38.53
2023-05-25T19:01:00.907Z,55.80
2023-05-25T19:03:28.531Z,43.57
2023-05-25T19:05:56.399Z,42.57
2023-05-25T19:08:23.589Z,48.13
2023-05-25T19:10:50.866Z,40.60
2023-05-25T19:13:25.581Z,45.37
2023-05-25T19:15:55.948Z,55.73
2023-05-25T19:18:23.885Z,35.20
2023-05-25T19:20:54.097Z,50.53
2023-05-25T19:23:25.874Z,47.80
2023-05-25T19:25:53.114Z,30.70
2023-05-25T19:28:22.205Z,46.93
2023-05-25T19:30:52.364Z,47.13
2023-05-25T19:33:19.788Z,36.67
2023-05-25T19:35:47.523Z,48.90
2023-05-25T19:38:16.926Z,44.23
2023-05-25T19:40:46.360Z,47.03
2023-05-25T19:43:14.026Z,61.57
2023-05-25T19:45:45.756Z,46.83
2023-05-25T19:48:13.219Z,36.37
2023-05-25T19:50:41.036Z,55.30
2023-05-25T19:53:08.156Z,42.30
2023-05-25T19:55:39.081Z,47.37
2023-05-25T19:58:11.287Z,61.27
2023-05-25T20:00:38.794Z,41.10
2023-05-25T20:03:06.139Z,50.70
2023-05-25T20:05:33.204Z,56.73
2023-05-25T20:08:00.564Z,46.67
2023-05-25T20:10:28.012Z,40.60
2023-05-25T20:12:56.681Z,34.20
2023-05-25T20:15:25.037Z,43.20
2023-05-25T20:17:52.933Z,42.87
2023-05-25T20:20:22.079Z,40.80
2023-05-25T20:22:51.037Z,45.57
2023-05-25T20:25:18.768Z,40.77
2023-05-25T20:27:45.885Z,52.07
2023-05-25T20:30:17.387Z,54.20
2023-05-25T20:32:44.502Z,33.83
2023-05-25T20:35:13.897Z,44.80
2023-05-25T20:37:43.906Z,36.50
2023-05-25T20:40:11.657Z,67.03
2023-05-25T20:42:39.512Z,48.13
2023-05-25T20:45:07.489Z,35.03
2023-05-25T20:47:39.373Z,41.87
2023-05-25T20:50:24.300Z,42.03
2023-05-25T20:52:54.545Z,31.40
2023-05-25T20:55:24.377Z,42.03
2023-05-25T20:57:51.325Z,50.57
2023-05-25T21:00:20.661Z,40.07
2023-05-25T21:02:50.758Z,39.77
2023-05-25T21:05:18.105Z,66.87
2023-05-25T21:07:46.282Z,54.30
2023-05-25T21:10:16.506Z,40.90
2023-05-25T21:12:44.299Z,44.93
2023-05-25T21:15:17.177Z,44.10
2023-05-25T21:17:44.886Z,42.17
2023-05-25T21:20:12.440Z,51.47
2023-05-25T21:22:42.909Z,38.63
2023-05-25T21:25:10.663Z,44.03
2023-05-25T21:27:40.464Z,52.30
2023-05-25T21:30:13.092Z,40.20
2023-05-25T21:32:43.500Z,39.53
2023-05-25T21:35:11.036Z,42.17
2023-05-25T21:37:38.849Z,43.93
2023-05-25T21:40:07.554Z,35.43
2023-05-25T21:42:34.598Z,49.17
2023-05-25T21:45:02.687Z,30.03
2023-05-25T21:47:33.546Z,43.07
2023-05-25T21:50:03.531Z,71.70
2023-05-25T21:52:30.972Z,43.57
2023-05-25T21:55:00.523Z,41.67
2023-05-25T21:57:30.613Z,55.27
2023-05-25T21:59:57.657Z,60.50
2023-05-25T22:02:24.885Z,37.47
2023-05-25T22:04:52.029Z,51.97
2023-05-25T22:07:21.379Z,36.40
2023-05-25T22:09:48.618Z,34.77
2023-05-25T22:12:18.060Z,47.40
2023-05-25T22:14:47.756Z,47.63
2023-05-25T22:17:18.150Z,48.57
2023-05-25T22:19:58.999Z,32.47
2023-05-25T22:22:36.644Z,46.07
2023-05-25T22:25:08.582Z,40.73
2023-05-25T22:27:43.007Z,43.97
2023-05-25T22:30:10.711Z,46.30
2023-05-25T22:32:37.763Z,46.30
2023-05-25T22:35:07.833Z,39.40
2023-05-25T22:37:37.179Z,46.87
2023-05-25T22:40:06.685Z,43.20
2023-05-25T22:42:36.254Z,43.47
2023-05-25T22:45:05.861Z,32.17
2023-05-25T22:47:33.092Z,36.97
2023-05-25T22:50:02.546Z,53.50
2023-05-25T22:52:29.604Z,36.60
2023-05-25T22:54:59.456Z,34.97
2023-05-25T22:57:26.551Z,41.60
2023-05-25T22:59:53.671Z,36.40
2023-05-25T23:02:23.734Z,41.67
2023-05-25T23:04:50.965Z,55.63
2023-05-25T23:07:20.413Z,39.13
2023-05-25T23:09:47.732Z,38.33
2023-05-25T23:12:14.799Z,29.97
2023-05-25T23:14:44.469Z,45.67
2023-05-25T23:17:14.201Z,54.97
2023-05-25T23:19:44.831Z,42.97
2023-05-25T23:22:14.562Z,56.77
2023-05-25T23:24:41.739Z,44.23
2023-05-25T23:27:08.834Z,42.57
2023-05-25T23:29:36.278Z,38.20
2023-05-25T23:32:03.844Z,36.83
2023-05-25T23:34:31.208Z,45.77
2023-05-25T23:36:58.688Z,55.33
2023-05-25T23:39:25.970Z,37.27
2023-05-25T23:41:53.081Z,47.07
2023-05-25T23:44:22.499Z,34.23
2023-05-25T23:46:49.608Z,44.43
2023-05-25T23:49:19.434Z,42.90
2023-05-25T23:51:46.508Z,58.43
2023-05-25T23:54:13.749Z,42.10
2023-05-25T23:56:41.249Z,31.17
2023-05-25T23:59:15.191Z,42.03
